Time;durP1;ratioP1;P1;durP2;ratioP2;P2;SDS_P1;SDS_P2;PMS_P1;PMS_P2;Temp;Humidity;BMP_temperature;BMP_pressure;BME280_temperature;BME280_humidity;BME280_pressure;Samples;Min_cycle;Max_cycle;Signal;HPM_P1;HPM_P2
2023/11/30 00:04:28;;;;;;;31.43;23.33;;;3.80;94.30;;;;;;10324585;28;20255;-64
2023/11/30 00:09:31;;;;;;;28.47;22.17;;;3.80;94.30;;;;;;10456925;28;20643;-65
2023/11/30 00:14:35;;;;;;;27.07;21.20;;;3.80;94.30;;;;;;10457702;28;20265;-64
2023/11/30 00:19:41;;;;;;;29.70;22.23;;;3.80;94.30;;;;;;10400808;28;20264;-65
2023/11/30 00:24:44;;;;;;;28.20;21.50;;;3.80;94.30;;;;;;10444747;28;20957;-64
2023/11/30 00:29:48;;;;;;;27.93;21.50;;;3.80;94.20;;;;;;10453265;28;20218;-65
2023/11/30 00:34:53;;;;;;;28.20;20.57;;;3.80;94.30;;;;;;10449978;28;20274;-65
2023/11/30 00:40:00;;;;;;;28.37;18.13;;;3.80;94.40;;;;;;10444423;28;20191;-64
2023/11/30 00:45:05;;;;;;;28.40;19.83;;;3.90;94.60;;;;;;10449471;28;20207;-64
2023/11/30 00:50:10;;;;;;;27.83;19.53;;;3.90;94.60;;;;;;10441407;28;20228;-64
2023/11/30 00:55:14;;;;;;;23.47;17.43;;;3.90;94.70;;;;;;10439847;28;20714;-65
2023/11/30 01:00:18;;;;;;;25.60;19.33;;;3.90;94.80;;;;;;10450891;28;20673;-63
2023/11/30 01:05:23;;;;;;;26.43;19.50;;;3.90;94.60;;;;;;10441763;28;20222;-64
2023/11/30 01:10:27;;;;;;;27.17;19.37;;;3.90;94.60;;;;;;10467772;28;20233;-63
2023/11/30 01:15:31;;;;;;;32.00;21.93;;;3.90;94.70;;;;;;10483331;28;20269;-62
2023/11/30 01:20:35;;;;;;;29.00;20.90;;;4.00;94.80;;;;;;10456619;28;20218;-63
2023/11/30 01:25:39;;;;;;;25.73;19.90;;;4.00;94.80;;;;;;10443282;28;20202;-63
2023/11/30 01:30:43;;;;;;;25.10;19.57;;;4.00;94.70;;;;;;10452738;28;20252;-63
2023/11/30 01:35:51;;;;;;;25.63;19.07;;;4.00;94.70;;;;;;10439544;28;20247;-63
2023/11/30 01:40:55;;;;;;;26.47;19.17;;;4.00;94.60;;;;;;10436667;28;20216;-63
2023/11/30 01:45:59;;;;;;;22.87;17.90;;;4.00;94.60;;;;;;10447732;28;20813;-63
2023/11/30 01:51:09;;;;;;;24.27;17.20;;;3.90;94.60;;;;;;10449927;28;20227;-63
2023/11/30 01:56:15;;;;;;;24.53;17.73;;;4.00;94.40;;;;;;10448496;28;20245;-63
2023/11/30 02:01:18;;;;;;;21.80;17.13;;;3.90;94.30;;;;;;10444230;28;20249;-63
2023/11/30 02:06:23;;;;;;;22.57;17.73;;;3.90;94.20;;;;;;10442427;28;20244;-63
2023/11/30 02:11:27;;;;;;;22.20;17.40;;;3.90;94.00;;;;;;10448519;28;20222;-63
2023/11/30 02:16:31;;;;;;;23.83;17.40;;;3.80;93.90;;;;;;10448630;28;20210;-64
2023/11/30 02:21:36;;;;;;;24.40;18.20;;;3.80;94.10;;;;;;10443647;28;20269;-64
2023/11/30 02:26:41;;;;;;;20.57;16.50;;;3.80;94.20;;;;;;10448728;28;20200;-64
2023/11/30 02:31:45;;;;;;;26.13;18.80;;;3.80;94.20;;;;;;10445528;28;20261;-64
2023/11/30 02:36:48;;;;;;;44.33;26.63;;;3.70;94.10;;;;;;10444541;28;20208;-64
2023/11/30 02:41:53;;;;;;;41.50;25.33;;;3.70;94.10;;;;;;10443726;28;20226;-64
2023/11/30 02:46:57;;;;;;;27.07;18.50;;;3.70;94.10;;;;;;10439712;28;20249;-63
2023/11/30 02:52:01;;;;;;;26.83;18.83;;;3.70;94.20;;;;;;10439534;28;20643;-64
2023/11/30 02:57:06;;;;;;;23.37;18.00;;;3.70;94.10;;;;;;10443721;28;20197;-64
2023/11/30 03:02:11;;;;;;;24.33;17.17;;;3.70;94.00;;;;;;10449977;28;20617;-63
2023/11/30 03:07:14;;;;;;;26.20;17.90;;;3.70;93.90;;;;;;10453156;28;20870;-63
2023/11/30 03:12:19;;;;;;;28.53;18.87;;;3.70;93.90;;;;;;10449693;28;20238;-64
2023/11/30 03:17:23;;;;;;;27.83;19.80;;;3.70;93.90;;;;;;10454478;28;20225;-65
2023/11/30 03:22:27;;;;;;;24.23;18.03;;;3.60;93.80;;;;;;10448813;28;20235;-65
2023/11/30 03:27:32;;;;;;;26.13;18.53;;;3.60;93.90;;;;;;10455031;28;20226;-65
2023/11/30 03:32:36;;;;;;;24.80;17.50;;;3.60;93.80;;;;;;10449004;28;20235;-65
2023/11/30 03:37:42;;;;;;;28.63;19.53;;;3.60;93.90;;;;;;10452979;28;20245;-65
2023/11/30 03:42:47;;;;;;;24.90;18.70;;;3.60;94.00;;;;;;10450422;28;20581;-65
2023/11/30 03:47:51;;;;;;;26.70;18.33;;;3.60;94.00;;;;;;10453331;28;20705;-65
2023/11/30 03:52:55;;;;;;;25.97;18.53;;;3.60;94.00;;;;;;10451262;28;20223;-65
2023/11/30 03:58:00;;;;;;;23.60;17.57;;;3.60;94.10;;;;;;10448447;28;20191;-65
2023/11/30 04:03:05;;;;;;;24.23;17.13;;;3.60;94.00;;;;;;10450634;28;20275;-65
2023/11/30 04:08:08;;;;;;;22.90;17.40;;;3.60;93.90;;;;;;10448339;28;20227;-65
2023/11/30 04:13:13;;;;;;;25.33;17.77;;;3.60;93.80;;;;;;10450940;28;20227;-65
2023/11/30 04:18:17;;;;;;;27.77;18.90;;;3.50;93.90;;;;;;10451789;28;20197;-64
2023/11/30 04:23:20;;;;;;;25.67;17.60;;;3.50;94.10;;;;;;10449783;28;20272;-65
2023/11/30 04:28:25;;;;;;;27.30;19.00;;;3.50;94.20;;;;;;10447801;28;20254;-65
2023/11/30 04:33:29;;;;;;;26.43;18.57;;;3.60;94.20;;;;;;10448509;28;20249;-64
2023/11/30 04:38:33;;;;;;;25.97;18.27;;;3.60;94.30;;;;;;10449318;28;20674;-65
2023/11/30 04:43:40;;;;;;;28.90;19.10;;;3.60;94.20;;;;;;10450500;28;20609;-64
2023/11/30 04:48:43;;;;;;;28.70;19.47;;;3.70;94.40;;;;;;10456568;28;20222;-65
2023/11/30 04:53:47;;;;;;;27.97;18.13;;;3.70;94.80;;;;;;10449090;28;20246;-64
2023/11/30 04:58:52;;;;;;;27.53;18.90;;;3.70;94.70;;;;;;10446337;28;20664;-64
2023/11/30 05:03:57;;;;;;;27.97;18.73;;;3.70;94.40;;;;;;10448865;28;20227;-65
2023/11/30 05:09:01;;;;;;;26.63;18.70;;;3.80;94.40;;;;;;10442655;28;20776;-66
2023/11/30 05:14:06;;;;;;;27.37;18.40;;;3.90;94.50;;;;;;10443020;28;20277;-65
2023/11/30 05:19:09;;;;;;;25.50;18.10;;;3.80;94.40;;;;;;10445711;28;20246;-64
2023/11/30 05:24:13;;;;;;;29.37;18.60;;;3.90;94.50;;;;;;10447187;28;20227;-64
2023/11/30 05:29:18;;;;;;;27.63;17.90;;;3.90;94.90;;;;;;10455518;28;20214;-64
2023/11/30 05:34:22;;;;;;;27.17;19.07;;;3.90;94.50;;;;;;10450769;28;20283;-66
2023/11/30 05:39:25;;;;;;;28.90;19.90;;;3.90;94.50;;;;;;10452217;28;20597;-66
2023/11/30 05:44:30;;;;;;;24.83;17.40;;;3.90;94.50;;;;;;10409596;28;20230;-65
2023/11/30 05:49:34;;;;;;;33.07;20.73;;;3.90;94.50;;;;;;10450903;28;20223;-64
2023/11/30 05:54:37;;;;;;;31.10;20.23;;;3.90;94.70;;;;;;10449645;28;20223;-65
2023/11/30 05:59:43;;;;;;;26.77;18.03;;;4.00;94.70;;;;;;10451685;28;20213;-69
2023/11/30 06:04:51;;;;;;;29.10;19.33;;;4.00;94.60;;;;;;10450067;28;20264;-66
2023/11/30 06:09:55;;;;;;;28.47;18.17;;;4.00;94.60;;;;;;10452541;28;20292;-65
2023/11/30 06:15:00;;;;;;;28.37;19.77;;;4.00;94.50;;;;;;10449216;28;20552;-66
2023/11/30 06:20:04;;;;;;;27.97;19.37;;;4.00;94.40;;;;;;10447407;28;20242;-64
2023/11/30 06:25:11;;;;;;;26.77;18.47;;;4.00;94.30;;;;;;10456833;28;20214;-65
2023/11/30 06:30:17;;;;;;;30.70;20.07;;;4.00;94.40;;;;;;10455259;28;20713;-65
2023/11/30 06:35:20;;;;;;;26.50;19.13;;;4.00;94.40;;;;;;10456242;28;20264;-65
2023/11/30 06:40:24;;;;;;;26.57;18.93;;;4.00;94.40;;;;;;10463556;28;20273;-66
2023/11/30 06:45:29;;;;;;;28.50;19.40;;;4.00;94.40;;;;;;10456631;28;20204;-66
2023/11/30 06:50:33;;;;;;;28.37;19.17;;;3.90;94.40;;;;;;10457755;28;20238;-66
2023/11/30 06:55:37;;;;;;;27.60;18.90;;;4.00;94.60;;;;;;10462234;28;20705;-65
2023/11/30 07:00:43;;;;;;;29.23;20.00;;;4.00;94.50;;;;;;10457292;28;20222;-65
2023/11/30 07:05:46;;;;;;;31.58;26.70;;;4.00;94.50;;;;;;10454702;28;20509;-67
2023/11/30 07:10:53;;;;;;;28.17;20.87;;;4.20;94.30;;;;;;10456349;28;20601;-67
2023/11/30 07:15:58;;;;;;;28.03;20.63;;;4.10;94.10;;;;;;10455200;28;20739;-66
2023/11/30 07:21:02;;;;;;;28.70;20.43;;;4.10;94.00;;;;;;10462092;28;20229;-67
2023/11/30 07:26:10;;;;;;;28.63;20.33;;;4.00;94.00;;;;;;10452199;28;20679;-68
2023/11/30 07:31:23;;;;;;;26.13;19.17;;;4.00;94.00;;;;;;10433620;28;20749;-68
2023/11/30 07:36:26;;;;;;;27.60;19.30;;;4.00;94.10;;;;;;10451358;28;20262;-67
2023/11/30 07:41:30;;;;;;;26.90;19.40;;;4.00;94.10;;;;;;10456254;28;20572;-67
2023/11/30 07:46:35;;;;;;;31.33;20.77;;;4.00;94.10;;;;;;10447585;28;20201;-68
2023/11/30 07:51:39;;;;;;;26.20;18.67;;;3.90;93.90;;;;;;10449373;28;20228;-68
2023/11/30 07:56:42;;;;;;;30.30;21.10;;;3.90;93.90;;;;;;10453829;28;20264;-68
2023/11/30 08:01:47;;;;;;;27.90;19.93;;;3.90;94.00;;;;;;10455608;28;20223;-67
2023/11/30 08:06:51;;;;;;;28.10;20.50;;;3.90;94.20;;;;;;10447497;28;20264;-68
2023/11/30 08:11:54;;;;;;;28.67;20.47;;;3.90;93.80;;;;;;10452338;28;20234;-67
2023/11/30 08:17:04;;;;;;;26.60;19.77;;;3.90;93.80;;;;;;10454219;28;20198;-67
2023/11/30 08:22:08;;;;;;;28.47;20.23;;;3.90;93.70;;;;;;10453559;28;20591;-68
2023/11/30 08:27:11;;;;;;;27.73;20.20;;;3.90;93.70;;;;;;10462798;28;20586;-68
2023/11/30 08:32:16;;;;;;;29.03;20.60;;;3.90;93.80;;;;;;10455210;28;20287;-68
2023/11/30 08:37:20;;;;;;;28.80;19.93;;;3.90;93.80;;;;;;10454260;28;20759;-68
2023/11/30 08:42:24;;;;;;;26.47;19.70;;;3.90;93.70;;;;;;10455108;28;20223;-67
2023/11/30 08:47:29;;;;;;;28.87;20.00;;;3.90;93.70;;;;;;10457012;28;20661;-67
2023/11/30 08:52:33;;;;;;;29.20;20.53;;;3.90;93.70;;;;;;10453920;28;20239;-67
2023/11/30 08:57:37;;;;;;;28.67;20.80;;;3.90;93.60;;;;;;10448326;28;20229;-68
2023/11/30 09:02:43;;;;;;;26.80;19.50;;;3.90;93.60;;;;;;10442035;28;20637;-68
2023/11/30 09:07:47;;;;;;;29.60;20.37;;;3.90;93.60;;;;;;10444372;28;20211;-68
2023/11/30 09:12:51;;;;;;;30.10;20.17;;;3.90;93.60;;;;;;10455427;28;20238;-67
2023/11/30 09:17:58;;;;;;;29.33;21.23;;;3.90;93.60;;;;;;10450805;28;20210;-68
2023/11/30 09:23:01;;;;;;;26.40;19.43;;;4.00;93.70;;;;;;10452472;28;20273;-68
2023/11/30 09:28:05;;;;;;;27.93;20.23;;;4.00;93.80;;;;;;10451886;28;20262;-68
2023/11/30 09:33:10;;;;;;;27.77;21.00;;;4.00;93.80;;;;;;10443781;28;20222;-68
2023/11/30 09:38:14;;;;;;;28.77;20.73;;;4.00;93.90;;;;;;10454212;28;20582;-68
2023/11/30 09:43:17;;;;;;;31.10;20.50;;;4.10;93.90;;;;;;10455222;28;20247;-68
2023/11/30 09:48:22;;;;;;;29.07;21.07;;;4.20;94.00;;;;;;10446481;28;20230;-68
2023/11/30 09:53:26;;;;;;;28.87;20.37;;;4.20;94.00;;;;;;10452463;28;20286;-67
2023/11/30 09:58:30;;;;;;;29.00;21.00;;;4.30;93.90;;;;;;10455583;28;20203;-68
2023/11/30 10:03:37;;;;;;;29.07;19.93;;;4.40;94.10;;;;;;10452521;28;20227;-68
2023/11/30 10:08:41;;;;;;;29.03;20.70;;;4.50;94.10;;;;;;10449561;28;20731;-69
2023/11/30 10:13:45;;;;;;;29.40;21.53;;;4.60;94.10;;;;;;10455457;28;20230;-67
2023/11/30 10:18:51;;;;;;;30.67;21.20;;;4.70;94.10;;;;;;10443575;28;20205;-65
2023/11/30 10:23:56;;;;;;;29.20;20.53;;;4.80;94.00;;;;;;10451269;28;20257;-68
2023/11/30 10:29:04;;;;;;;30.30;21.00;;;4.80;94.10;;;;;;10446993;28;20201;-69
2023/11/30 10:34:12;;;;;;;27.93;20.93;;;4.90;94.10;;;;;;10443614;28;20598;-67
2023/11/30 10:39:17;;;;;;;26.50;19.20;;;5.00;94.00;;;;;;10452623;28;20252;-69
2023/11/30 10:44:28;;;;;;;26.53;19.93;;;5.00;94.00;;;;;;10444836;28;20302;-68
2023/11/30 10:49:34;;;;;;;26.00;18.73;;;5.10;94.10;;;;;;10442304;28;20251;-68
2023/11/30 10:54:41;;;;;;;27.27;21.33;;;5.10;94.00;;;;;;10446457;28;20290;-68
2023/11/30 10:59:45;;;;;;;28.50;21.50;;;5.20;94.00;;;;;;10448767;28;20201;-69
2023/11/30 11:04:50;;;;;;;27.67;20.30;;;5.20;94.00;;;;;;10449574;28;20208;-68
2023/11/30 11:09:55;;;;;;;31.90;22.20;;;5.20;93.90;;;;;;10452085;28;20209;-69
2023/11/30 11:15:08;;;;;;;29.87;21.90;;;5.20;94.00;;;;;;10451799;28;20582;-68
2023/11/30 11:20:23;;;;;;;26.30;20.47;;;5.30;93.90;;;;;;10445679;28;20224;-69
2023/11/30 11:25:29;;;;;;;30.33;21.97;;;5.30;93.90;;;;;;10457643;28;20684;-68
2023/11/30 11:30:33;;;;;;;25.17;20.20;;;5.40;94.00;;;;;;10462835;28;20283;-67
2023/11/30 11:35:38;;;;;;;27.00;20.47;;;5.50;93.90;;;;;;10456833;28;20271;-69
2023/11/30 11:40:42;;;;;;;26.57;20.37;;;5.50;93.80;;;;;;10455459;28;20786;-68
2023/11/30 11:45:45;;;;;;;25.57;18.97;;;5.60;93.90;;;;;;10453146;28;20197;-68
2023/11/30 11:50:58;;;;;;;24.83;19.50;;;5.60;93.60;;;;;;10455323;28;20224;-68
2023/11/30 11:56:03;;;;;;;26.03;18.77;;;5.70;93.60;;;;;;10452941;28;20198;-67
2023/11/30 12:01:06;;;;;;;23.23;19.03;;;5.70;93.50;;;;;;10452881;28;20233;-66
2023/11/30 12:06:12;;;;;;;24.20;19.00;;;5.80;93.40;;;;;;10455482;28;20722;-68
2023/11/30 12:11:18;;;;;;;23.47;18.43;;;5.80;93.50;;;;;;10454806;28;20230;-67
2023/11/30 12:16:21;;;;;;;25.70;19.30;;;5.80;93.40;;;;;;10450774;28;20652;-68
2023/11/30 12:21:27;;;;;;;23.00;18.17;;;5.80;93.40;;;;;;10455583;28;20222;-66
2023/11/30 12:26:31;;;;;;;26.47;18.67;;;5.90;93.40;;;;;;10454256;28;20311;-66
2023/11/30 12:31:34;;;;;;;24.93;18.70;;;6.00;93.20;;;;;;10451183;28;20283;-65
2023/11/30 12:36:39;;;;;;;23.33;19.00;;;6.20;93.10;;;;;;10450238;28;20207;-66
2023/11/30 12:41:43;;;;;;;21.87;18.23;;;6.30;92.80;;;;;;10454121;28;20222;-66
2023/11/30 12:46:46;;;;;;;24.97;18.93;;;6.30;92.90;;;;;;10451646;28;20206;-65
2023/11/30 12:51:51;;;;;;;22.47;18.17;;;6.40;93.20;;;;;;10451177;28;20226;-66
2023/11/30 12:56:55;;;;;;;21.03;16.30;;;6.60;93.00;;;;;;10454510;28;20294;-67
2023/11/30 13:01:59;;;;;;;20.33;16.43;;;6.80;92.60;;;;;;10451943;28;20260;-66
2023/11/30 13:07:04;;;;;;;18.20;14.70;;;7.00;93.10;;;;;;10449744;28;20214;-65
2023/11/30 13:12:08;;;;;;;19.47;15.90;;;7.00;93.20;;;;;;10448795;28;20226;-67
2023/11/30 13:17:13;;;;;;;22.80;17.90;;;7.00;92.20;;;;;;10453896;28;20225;-66
2023/11/30 13:22:18;;;;;;;22.93;17.43;;;6.90;92.10;;;;;;10447496;28;20273;-66
2023/11/30 13:27:21;;;;;;;23.93;17.33;;;6.90;91.90;;;;;;10451720;28;20551;-65
2023/11/30 13:32:26;;;;;;;21.20;17.10;;;6.80;92.00;;;;;;10449346;28;20747;-66
2023/11/30 13:37:31;;;;;;;22.30;17.57;;;6.80;92.30;;;;;;10442647;28;20202;-66
2023/11/30 13:42:34;;;;;;;20.30;17.33;;;6.70;92.30;;;;;;10446428;28;20327;-66
2023/11/30 13:47:41;;;;;;;21.97;17.37;;;6.60;92.20;;;;;;10411444;28;20796;-66
2023/11/30 13:52:47;;;;;;;21.63;17.77;;;6.60;92.20;;;;;;10446665;28;20223;-66
2023/11/30 13:57:50;;;;;;;25.73;17.33;;;6.60;92.40;;;;;;10440724;28;20205;-66
2023/11/30 14:02:54;;;;;;;22.63;17.87;;;6.60;92.50;;;;;;10433297;28;20294;-64
2023/11/30 14:07:59;;;;;;;24.63;17.20;;;6.50;92.30;;;;;;10448643;28;20660;-65
2023/11/30 14:13:05;;;;;;;22.77;18.30;;;6.50;92.60;;;;;;10439942;28;20647;-64
2023/11/30 14:18:09;;;;;;;23.10;18.40;;;6.40;92.40;;;;;;10450180;28;20248;-65
2023/11/30 14:23:14;;;;;;;26.10;19.03;;;6.40;92.40;;;;;;10443165;28;20272;-67
2023/11/30 14:28:17;;;;;;;20.90;16.03;;;6.40;92.30;;;;;;10437532;28;20215;-67
2023/11/30 14:33:22;;;;;;;20.90;16.23;;;6.30;92.20;;;;;;10443004;28;20229;-68
2023/11/30 14:38:27;;;;;;;21.37;16.70;;;6.30;92.30;;;;;;10447386;28;20566;-67
2023/11/30 14:43:31;;;;;;;23.50;18.53;;;6.30;92.30;;;;;;10440568;28;20228;-66
2023/11/30 14:48:34;;;;;;;25.90;19.87;;;6.20;92.40;;;;;;10439704;28;20679;-67
2023/11/30 14:53:39;;;;;;;28.37;21.73;;;6.10;92.50;;;;;;10436186;28;20879;-67
2023/11/30 14:58:43;;;;;;;30.67;23.53;;;6.00;92.70;;;;;;10444423;28;20575;-68
2023/11/30 15:03:47;;;;;;;30.10;22.63;;;5.90;92.80;;;;;;10382117;28;20494;-68
2023/11/30 15:08:52;;;;;;;33.03;24.47;;;5.90;92.90;;;;;;10452112;28;20197;-67
2023/11/30 15:13:59;;;;;;;33.40;23.83;;;5.80;92.90;;;;;;10419483;28;20740;-64
2023/11/30 15:19:03;;;;;;;32.13;22.43;;;5.70;92.90;;;;;;10417072;28;20197;-68
2023/11/30 15:24:09;;;;;;;32.73;23.43;;;5.70;93.00;;;;;;10444468;28;20213;-66
2023/11/30 15:29:12;;;;;;;34.57;24.50;;;5.60;92.80;;;;;;10443821;28;20210;-65
2023/11/30 15:34:19;;;;;;;37.67;24.60;;;5.60;92.90;;;;;;10438210;28;20560;-69
2023/11/30 15:39:25;;;;;;;36.53;24.90;;;5.50;92.90;;;;;;10416965;28;20205;-67
2023/11/30 15:44:28;;;;;;;35.37;25.17;;;5.50;93.00;;;;;;10430383;28;20223;-66
2023/11/30 15:49:32;;;;;;;40.70;26.80;;;5.40;93.10;;;;;;10444148;28;20210;-66
2023/11/30 15:54:41;;;;;;;34.23;24.63;;;5.40;93.10;;;;;;10453508;28;20222;-66
2023/11/30 15:59:44;;;;;;;33.43;25.47;;;5.40;93.10;;;;;;10442285;28;20732;-66
2023/11/30 16:04:48;;;;;;;37.60;26.17;;;5.30;93.10;;;;;;10456559;28;20239;-67
2023/11/30 16:09:56;;;;;;;33.67;24.53;;;5.30;93.20;;;;;;10452452;28;20243;-67
2023/11/30 16:14:59;;;;;;;34.40;23.23;;;5.20;93.10;;;;;;10451117;28;20229;-68
2023/11/30 16:20:08;;;;;;;39.23;23.50;;;5.10;92.90;;;;;;10439985;28;20254;-68
2023/11/30 16:25:13;;;;;;;38.13;24.30;;;5.10;93.10;;;;;;10440251;28;20202;-67
2023/11/30 16:30:18;;;;;;;39.30;25.43;;;5.00;93.00;;;;;;10446789;28;20904;-67
2023/11/30 16:35:22;;;;;;;40.97;28.03;;;4.90;93.10;;;;;;10443565;28;20271;-67
2023/11/30 16:40:28;;;;;;;41.77;27.40;;;4.80;93.00;;;;;;10446270;28;20621;-68
2023/11/30 16:45:31;;;;;;;45.73;29.13;;;4.80;93.10;;;;;;10443774;28;20221;-67
2023/11/30 16:50:35;;;;;;;41.73;26.90;;;4.70;93.20;;;;;;10436050;28;20275;-66
2023/11/30 16:55:40;;;;;;;47.23;29.10;;;4.70;93.50;;;;;;10447038;28;20255;-67
2023/11/30 17:00:43;;;;;;;45.93;27.57;;;4.70;93.30;;;;;;10448925;28;20751;-68
2023/11/30 17:05:49;;;;;;;42.53;27.70;;;4.60;93.20;;;;;;10439381;28;20201;-66
2023/11/30 17:10:54;;;;;;;41.57;27.47;;;4.60;93.30;;;;;;10444789;28;20219;-67
2023/11/30 17:15:58;;;;;;;42.63;28.23;;;4.60;93.40;;;;;;10440469;28;20266;-66
2023/11/30 17:21:05;;;;;;;38.73;26.00;;;4.60;93.50;;;;;;10448725;28;20288;-66
2023/11/30 17:26:10;;;;;;;41.07;27.43;;;4.60;93.60;;;;;;10448107;28;20221;-65
2023/11/30 17:31:14;;;;;;;39.27;26.70;;;4.50;93.70;;;;;;10451691;28;20224;-65
2023/11/30 17:36:21;;;;;;;36.63;24.83;;;4.50;93.60;;;;;;10450182;28;20275;-65
2023/11/30 17:41:26;;;;;;;37.07;26.07;;;4.40;93.50;;;;;;10444517;28;20255;-65
2023/11/30 17:46:30;;;;;;;35.20;24.87;;;4.30;93.60;;;;;;10444670;28;20194;-66
2023/11/30 17:51:33;;;;;;;34.43;24.53;;;4.30;93.80;;;;;;10446430;28;20670;-66
2023/11/30 17:56:39;;;;;;;35.27;24.10;;;4.30;94.20;;;;;;10439370;28;20864;-65
2023/11/30 18:01:43;;;;;;;33.20;23.17;;;4.30;93.80;;;;;;10411577;28;20220;-70
2023/11/30 18:06:47;;;;;;;34.67;24.30;;;4.30;93.70;;;;;;10450324;28;20812;-68
2023/11/30 18:11:52;;;;;;;41.87;23.53;;;4.30;93.80;;;;;;10441390;28;20224;-68
2023/11/30 18:16:56;;;;;;;51.50;24.40;;;4.30;93.70;;;;;;10449040;28;20792;-68
2023/11/30 18:21:59;;;;;;;34.60;23.80;;;4.20;93.70;;;;;;10447637;28;20222;-68
2023/11/30 18:27:05;;;;;;;35.90;29.33;;;4.20;93.80;;;;;;10442934;28;20436;-66
2023/11/30 18:32:08;;;;;;;32.00;23.57;;;4.30;94.00;;;;;;10445553;28;20221;-74
2023/11/30 18:37:12;;;;;;;35.77;24.57;;;4.40;93.80;;;;;;10447706;28;20641;-65
2023/11/30 18:42:17;;;;;;;39.73;26.17;;;4.40;93.60;;;;;;10446874;28;20223;-63
2023/11/30 18:47:21;;;;;;;41.77;26.80;;;4.40;93.70;;;;;;10443525;28;20226;-64
2023/11/30 18:52:27;;;;;;;42.20;28.03;;;4.30;93.80;;;;;;10447259;28;20637;-66
2023/11/30 18:57:32;;;;;;;43.00;29.47;;;4.30;94.00;;;;;;10448678;28;20272;-65
2023/11/30 19:02:36;;;;;;;46.43;28.87;;;4.30;93.90;;;;;;10448851;28;20279;-65
2023/11/30 19:07:40;;;;;;;46.43;28.97;;;4.30;93.80;;;;;;10450476;28;20253;-65
2023/11/30 19:12:45;;;;;;;46.87;30.63;;;4.30;93.90;;;;;;10447617;28;20243;-65
2023/11/30 19:17:49;;;;;;;47.27;30.00;;;4.30;93.90;;;;;;10458599;28;20348;-65
2023/11/30 19:22:53;;;;;;;48.60;29.97;;;4.30;93.80;;;;;;10453073;28;20655;-63
2023/11/30 19:27:58;;;;;;;44.07;28.80;;;4.30;93.80;;;;;;10455979;28;20201;-65
2023/11/30 19:33:02;;;;;;;47.43;30.50;;;4.30;93.90;;;;;;10451956;28;20227;-64
2023/11/30 19:38:06;;;;;;;49.23;29.57;;;4.30;94.10;;;;;;10447765;28;20248;-64
2023/11/30 19:43:11;;;;;;;48.53;31.17;;;4.40;93.80;;;;;;10455668;28;20238;-65
2023/11/30 19:48:15;;;;;;;49.00;29.33;;;4.40;94.10;;;;;;10447101;28;20223;-65
2023/11/30 19:53:19;;;;;;;53.17;30.63;;;4.40;94.00;;;;;;10455687;28;20244;-63
2023/11/30 19:58:24;;;;;;;52.17;31.10;;;4.50;93.80;;;;;;10442021;28;20316;-64
2023/11/30 20:03:27;;;;;;;53.07;31.83;;;4.50;94.10;;;;;;10451027;28;20223;-64
2023/11/30 20:08:31;;;;;;;53.97;32.33;;;4.50;93.70;;;;;;10451847;28;20203;-64
2023/11/30 20:13:37;;;;;;;52.43;32.03;;;4.60;94.00;;;;;;10445027;28;20264;-63
2023/11/30 20:18:41;;;;;;;52.83;31.53;;;4.50;93.60;;;;;;10448008;28;20587;-63
2023/11/30 20:23:44;;;;;;;53.87;32.80;;;4.50;93.50;;;;;;10452118;28;20592;-63
2023/11/30 20:28:49;;;;;;;51.00;31.63;;;4.50;93.60;;;;;;10449229;28;21626;-65
2023/11/30 20:33:53;;;;;;;52.00;31.73;;;4.50;93.50;;;;;;10448707;28;20242;-64
2023/11/30 20:38:57;;;;;;;58.47;32.03;;;4.50;93.50;;;;;;10448654;28;20252;-64
2023/11/30 20:44:04;;;;;;;58.30;32.13;;;4.50;93.50;;;;;;10452564;28;20727;-65
2023/11/30 20:49:07;;;;;;;56.23;33.70;;;4.50;93.50;;;;;;10447797;28;20233;-65
2023/11/30 20:54:11;;;;;;;54.20;31.83;;;4.50;93.50;;;;;;10452149;28;20262;-65
2023/11/30 20:59:16;;;;;;;58.20;33.10;;;4.50;93.60;;;;;;10449452;28;20199;-65
2023/11/30 21:04:20;;;;;;;54.47;32.07;;;4.50;93.60;;;;;;10443485;28;20301;-65
2023/11/30 21:09:24;;;;;;;54.53;32.20;;;4.50;93.50;;;;;;10438091;28;20727;-65
2023/11/30 21:14:29;;;;;;;57.00;32.00;;;4.50;93.50;;;;;;10450479;28;20318;-63
2023/11/30 21:19:32;;;;;;;57.00;33.73;;;4.50;93.40;;;;;;10453069;28;20668;-66
2023/11/30 21:24:38;;;;;;;57.70;32.67;;;4.50;93.50;;;;;;10445807;28;20222;-65
2023/11/30 21:29:43;;;;;;;57.23;32.10;;;4.50;93.50;;;;;;10445923;28;20230;-65
2023/11/30 21:34:47;;;;;;;50.33;31.00;;;4.50;93.50;;;;;;10446947;28;20199;-64
2023/11/30 21:39:50;;;;;;;54.87;30.70;;;4.50;93.50;;;;;;10455277;28;20254;-65
2023/11/30 21:44:55;;;;;;;48.27;30.50;;;4.60;93.30;;;;;;10452355;28;20243;-65
2023/11/30 21:49:59;;;;;;;48.30;29.23;;;4.50;93.10;;;;;;10454927;28;20196;-66
2023/11/30 21:55:03;;;;;;;48.97;30.50;;;4.50;92.90;;;;;;10450794;28;20687;-67
2023/11/30 22:00:12;;;;;;;51.87;30.73;;;4.60;93.20;;;;;;10449253;28;20224;-64
2023/11/30 22:05:17;;;;;;;48.07;29.97;;;4.60;93.00;;;;;;10450447;28;20643;-65
2023/11/30 22:10:35;;;;;;;49.90;29.63;;;4.60;92.80;;;;;;10452617;28;20696;-65
2023/11/30 22:15:40;;;;;;;46.73;29.40;;;4.50;93.20;;;;;;10457673;28;20220;-65
2023/11/30 22:20:44;;;;;;;43.80;28.90;;;4.60;92.70;;;;;;10450379;28;20763;-65
2023/11/30 22:25:47;;;;;;;47.63;30.33;;;4.60;92.50;;;;;;10450722;28;20234;-65
2023/11/30 22:31:06;;;;;;;45.60;29.77;;;4.60;92.50;;;;;;10450668;28;20225;-64
2023/11/30 22:36:11;;;;;;;45.33;28.87;;;4.60;92.40;;;;;;10460638;28;20224;-64
2023/11/30 22:41:15;;;;;;;45.47;29.87;;;4.60;92.30;;;;;;10452087;28;20243;-65
2023/11/30 22:46:20;;;;;;;43.97;29.07;;;4.60;92.30;;;;;;10454969;28;20257;-64
2023/11/30 22:51:23;;;;;;;45.17;28.93;;;4.60;92.20;;;;;;10449799;28;20228;-65
2023/11/30 22:56:29;;;;;;;43.57;29.30;;;4.60;92.10;;;;;;10452457;28;20805;-64
2023/11/30 23:01:34;;;;;;;49.47;30.97;;;4.60;92.10;;;;;;10451682;28;20220;-65
2023/11/30 23:06:38;;;;;;;50.50;30.70;;;4.60;92.30;;;;;;10450786;28;20210;-65
2023/11/30 23:11:41;;;;;;;47.70;30.20;;;4.60;92.10;;;;;;10459296;28;20224;-63
2023/11/30 23:16:46;;;;;;;47.67;30.10;;;4.60;92.40;;;;;;10449946;28;20219;-65
2023/11/30 23:21:50;;;;;;;47.13;30.43;;;4.60;92.10;;;;;;10463530;28;20276;-64
2023/11/30 23:26:53;;;;;;;48.33;32.07;;;4.50;92.00;;;;;;10461835;28;20238;-65
2023/11/30 23:31:58;;;;;;;49.27;31.93;;;4.60;92.10;;;;;;10458477;28;20679;-65
2023/11/30 23:37:02;;;;;;;46.80;30.17;;;4.50;92.10;;;;;;10456727;28;20223;-69
2023/11/30 23:42:06;;;;;;;44.73;29.27;;;4.50;92.30;;;;;;10455880;28;20227;-71
2023/11/30 23:47:11;;;;;;;43.17;29.57;;;4.50;92.00;;;;;;10455750;28;20198;-70
2023/11/30 23:52:14;;;;;;;50.53;31.23;;;4.50;92.20;;;;;;10457777;28;20266;-65
2023/11/30 23:57:20;;;;;;;46.57;29.93;;;4.50;92.20;;;;;;10454019;28;20278;-69
